Time;durP1;ratioP1;P1;durP2;ratioP2;P2;SDS_P1;SDS_P2;PMS_P1;PMS_P2;Temp;Humidity;BMP_temperature;BMP_pressure;BME280_temperature;BME280_humidity;BME280_pressure;Samples;Min_cycle;Max_cycle;Signal;HPM_P1;HPM_P2
2021/09/24 00:00:23;;;;;;;11.47;6.57;;;13.20;99.90;;;;;;5052907;28;20197;-63
2021/09/24 00:02:49;;;;;;;12.00;7.35;;;13.20;99.90;;;;;;5055115;28;20461;-64
2021/09/24 00:05:15;;;;;;;10.97;6.60;;;13.20;99.90;;;;;;5055255;28;20194;-63
2021/09/24 00:07:41;;;;;;;12.03;7.67;;;13.20;99.90;;;;;;5056388;28;20418;-63
2021/09/24 00:10:08;;;;;;;9.67;7.17;;;13.10;99.90;;;;;;5055115;28;20809;-63
2021/09/24 00:12:34;;;;;;;11.27;8.50;;;13.10;99.90;;;;;;5056811;28;20181;-63
2021/09/24 00:14:59;;;;;;;10.15;7.47;;;13.10;99.90;;;;;;5056317;28;20247;-63
2021/09/24 00:17:25;;;;;;;8.40;7.30;;;13.10;99.90;;;;;;5084553;28;20224;-63
2021/09/24 00:19:51;;;;;;;10.23;7.77;;;13.00;99.90;;;;;;5096470;28;20417;-63
2021/09/24 00:22:16;;;;;;;10.43;7.63;;;13.00;99.90;;;;;;5096392;28;20254;-63
2021/09/24 00:24:42;;;;;;;7.80;6.70;;;12.90;99.90;;;;;;5078185;28;20196;-63
2021/09/24 00:27:08;;;;;;;12.27;7.80;;;12.90;99.90;;;;;;5078459;28;20173;-63
2021/09/24 00:29:33;;;;;;;12.97;7.73;;;12.80;99.90;;;;;;5096333;28;20295;-63
2021/09/24 00:31:59;;;;;;;10.80;7.50;;;12.80;99.90;;;;;;5096666;28;20546;-63
2021/09/24 00:34:24;;;;;;;13.43;8.40;;;12.80;99.90;;;;;;5096181;28;20245;-63
2021/09/24 00:36:50;;;;;;;9.63;8.43;;;12.80;99.90;;;;;;5096555;28;20626;-63
2021/09/24 00:39:16;;;;;;;10.93;8.57;;;12.80;99.90;;;;;;5096306;28;20200;-63
2021/09/24 00:41:41;;;;;;;14.60;9.13;;;12.80;99.90;;;;;;5078030;28;20186;-63
2021/09/24 00:44:07;;;;;;;21.33;11.03;;;12.80;99.90;;;;;;5096049;28;20603;-63
2021/09/24 00:46:33;;;;;;;15.83;10.23;;;12.80;99.90;;;;;;5096329;28;20590;-63
2021/09/24 00:48:58;;;;;;;17.57;10.80;;;12.80;99.90;;;;;;5095870;28;20254;-63
2021/09/24 00:51:24;;;;;;;9.60;6.90;;;12.80;99.90;;;;;;5096170;28;20465;-63
2021/09/24 00:53:52;;;;;;;9.33;7.20;;;12.80;99.90;;;;;;5095873;28;20681;-64
2021/09/24 00:56:18;;;;;;;10.63;8.10;;;12.70;99.90;;;;;;5095933;28;20532;-63
2021/09/24 00:58:44;;;;;;;14.27;7.72;;;12.70;99.90;;;;;;5095770;28;20614;-63
2021/09/24 01:01:10;;;;;;;11.67;7.80;;;12.70;99.90;;;;;;5096119;28;20255;-64
2021/09/24 01:03:36;;;;;;;10.77;7.63;;;12.70;99.90;;;;;;5095549;28;20704;-64
2021/09/24 01:06:02;;;;;;;8.63;6.03;;;12.70;99.90;;;;;;5095810;28;20557;-63
2021/09/24 01:08:30;;;;;;;12.20;7.90;;;12.60;99.90;;;;;;5095529;28;20256;-63
2021/09/24 01:10:55;;;;;;;10.85;6.70;;;12.60;99.90;;;;;;5095590;28;20409;-63
2021/09/24 01:13:21;;;;;;;12.53;8.03;;;12.60;99.90;;;;;;5077288;28;20179;-63
2021/09/24 01:15:47;;;;;;;11.80;6.97;;;12.60;99.90;;;;;;5095298;28;20184;-64
2021/09/24 01:18:12;;;;;;;9.93;7.27;;;12.50;99.90;;;;;;5095332;28;20651;-63
2021/09/24 01:20:38;;;;;;;9.13;6.30;;;12.50;99.90;;;;;;5095322;28;20669;-63
2021/09/24 01:23:04;;;;;;;8.47;7.30;;;12.50;99.90;;;;;;5077061;28;20337;-64
2021/09/24 01:25:29;;;;;;;11.00;7.87;;;12.50;99.90;;;;;;5095226;28;20196;-63
2021/09/24 01:27:56;;;;;;;11.43;7.47;;;12.40;99.90;;;;;;5095174;28;20184;-63
2021/09/24 01:30:22;;;;;;;12.80;8.20;;;12.40;99.90;;;;;;5095055;28;20192;-64
2021/09/24 01:32:48;;;;;;;11.25;6.93;;;12.40;99.90;;;;;;5095087;28;20717;-63
2021/09/24 01:35:15;;;;;;;10.65;6.88;;;12.40;99.90;;;;;;5095093;28;20287;-64
2021/09/24 01:37:41;;;;;;;11.43;7.03;;;12.40;99.90;;;;;;5095476;28;20173;-64
2021/09/24 01:40:09;;;;;;;11.93;7.73;;;12.40;99.90;;;;;;5094971;28;20238;-63
2021/09/24 01:42:35;;;;;;;9.00;7.00;;;12.30;99.90;;;;;;5076915;28;20443;-63
2021/09/24 01:45:00;;;;;;;9.07;6.30;;;12.30;99.90;;;;;;5094889;28;20560;-63
2021/09/24 01:47:26;;;;;;;11.83;6.70;;;12.30;99.90;;;;;;5095437;28;20176;-63
2021/09/24 01:49:52;;;;;;;9.67;7.20;;;12.30;99.90;;;;;;5094716;28;20283;-64
2021/09/24 01:52:17;;;;;;;11.63;7.53;;;12.30;99.90;;;;;;5076727;28;20177;-63
2021/09/24 01:54:43;;;;;;;7.93;6.23;;;12.40;99.90;;;;;;5094626;28;20239;-63
2021/09/24 01:57:11;;;;;;;9.57;6.33;;;12.40;99.90;;;;;;5095118;28;20256;-64
2021/09/24 01:59:37;;;;;;;9.68;6.65;;;12.40;99.90;;;;;;5094625;28;20234;-63
2021/09/24 02:02:03;;;;;;;10.03;6.57;;;12.50;99.90;;;;;;5094867;28;20653;-63
2021/09/24 02:04:28;;;;;;;9.17;6.80;;;12.50;99.90;;;;;;5094503;28;20433;-63
2021/09/24 02:06:54;;;;;;;9.03;7.03;;;12.60;99.90;;;;;;5094756;28;20543;-63
2021/09/24 02:09:19;;;;;;;10.83;6.80;;;12.60;99.90;;;;;;5094402;28;20196;-63
2021/09/24 02:11:45;;;;;;;10.23;7.07;;;12.60;99.90;;;;;;5094768;28;20179;-63
2021/09/24 02:14:10;;;;;;;8.00;6.03;;;12.70;99.90;;;;;;5094352;28;20192;-63
2021/09/24 02:16:36;;;;;;;10.60;6.67;;;12.70;99.90;;;;;;5075870;28;20357;-63
2021/09/24 02:19:03;;;;;;;9.63;5.80;;;12.70;99.90;;;;;;5094272;28;20192;-63
2021/09/24 02:21:28;;;;;;;10.68;6.88;;;12.60;99.90;;;;;;5094605;28;20177;-64
2021/09/24 02:23:55;;;;;;;13.57;7.13;;;12.60;99.90;;;;;;5094140;28;20234;-63
2021/09/24 02:26:21;;;;;;;9.43;7.30;;;12.60;99.90;;;;;;5094148;28;20169;-63
2021/09/24 02:28:46;;;;;;;9.90;6.63;;;12.60;99.90;;;;;;5094134;28;20288;-63
2021/09/24 02:31:12;;;;;;;7.93;6.40;;;12.60;99.90;;;;;;5076036;28;20242;-63
2021/09/24 02:33:40;;;;;;;10.43;6.93;;;12.60;99.90;;;;;;5093977;28;20203;-63
2021/09/24 02:36:07;;;;;;;12.80;7.45;;;12.60;99.90;;;;;;5094199;28;20165;-63
2021/09/24 02:38:33;;;;;;;9.63;6.93;;;12.60;99.90;;;;;;5075885;28;20211;-64
2021/09/24 02:41:00;;;;;;;10.00;6.40;;;12.60;99.90;;;;;;5094048;28;20175;-63
2021/09/24 02:43:26;;;;;;;12.45;7.20;;;12.50;99.90;;;;;;5093796;28;20460;-63
2021/09/24 02:45:51;;;;;;;9.80;7.00;;;12.50;99.90;;;;;;5093997;28;20160;-63
2021/09/24 02:48:17;;;;;;;8.87;6.30;;;12.50;99.90;;;;;;5093872;28;20191;-63
2021/09/24 02:50:43;;;;;;;11.10;6.70;;;12.50;99.90;;;;;;5093951;28;20175;-63
2021/09/24 02:53:08;;;;;;;11.10;6.80;;;12.50;99.90;;;;;;5075737;28;20537;-63
2021/09/24 02:55:34;;;;;;;9.47;6.90;;;12.50;99.90;;;;;;5075730;28;20200;-63
2021/09/24 02:58:00;;;;;;;9.90;7.17;;;12.50;99.90;;;;;;5093766;28;20205;-63
2021/09/24 03:00:28;;;;;;;10.10;7.47;;;12.50;99.90;;;;;;5093576;28;20216;-63
2021/09/24 03:02:54;;;;;;;9.68;6.30;;;12.50;99.90;;;;;;5093677;28;20216;-63
2021/09/24 03:05:20;;;;;;;10.20;6.80;;;12.50;99.90;;;;;;5093615;28;20188;-63
2021/09/24 03:07:45;;;;;;;12.40;8.40;;;12.50;99.90;;;;;;5093744;28;20420;-63
2021/09/24 03:10:12;;;;;;;11.07;7.17;;;12.50;99.90;;;;;;5075501;28;20843;-63
2021/09/24 03:12:38;;;;;;;12.45;7.65;;;12.50;99.90;;;;;;5094119;28;20168;-63
2021/09/24 03:15:06;;;;;;;12.27;8.35;;;12.40;99.90;;;;;;5093588;28;20200;-63
2021/09/24 03:17:32;;;;;;;13.13;8.43;;;12.40;99.90;;;;;;5093526;28;20732;-63
2021/09/24 03:19:57;;;;;;;10.03;6.93;;;12.40;99.90;;;;;;5093530;28;20236;-63
2021/09/24 03:22:23;;;;;;;11.13;8.33;;;12.40;99.90;;;;;;5075673;28;20212;-63
2021/09/24 03:24:49;;;;;;;13.80;8.57;;;12.40;99.90;;;;;;5093479;28;20199;-63
2021/09/24 03:27:15;;;;;;;135.23;76.77;;;12.40;99.90;;;;;;5075354;28;20812;-64
2021/09/24 03:29:41;;;;;;;81.37;46.07;;;12.40;99.90;;;;;;5093491;28;20664;-63
2021/09/24 03:32:07;;;;;;;14.82;9.45;;;12.40;99.90;;;;;;5093896;28;20645;-64
2021/09/24 03:34:33;;;;;;;11.55;8.48;;;12.40;99.90;;;;;;5093418;28;20253;-63
2021/09/24 03:36:58;;;;;;;10.80;7.67;;;12.30;99.90;;;;;;5094814;28;20585;-64
2021/09/24 03:39:24;;;;;;;12.07;8.43;;;12.40;99.90;;;;;;5079084;28;20703;-64
2021/09/24 03:41:52;;;;;;;15.03;9.50;;;12.40;99.90;;;;;;5097560;28;20255;-64
2021/09/24 03:44:18;;;;;;;13.63;9.40;;;12.40;99.90;;;;;;5097253;28;20688;-64
2021/09/24 03:46:43;;;;;;;14.00;9.30;;;12.50;99.90;;;;;;5097468;28;20172;-64
2021/09/24 03:49:09;;;;;;;11.97;8.60;;;12.50;99.90;;;;;;5097201;28;20739;-64
2021/09/24 03:51:35;;;;;;;11.50;7.90;;;12.50;99.90;;;;;;5097412;28;20178;-63
2021/09/24 03:54:00;;;;;;;11.63;8.43;;;12.60;99.90;;;;;;5078860;28;20397;-63
2021/09/24 03:56:26;;;;;;;12.40;8.47;;;12.60;99.90;;;;;;5078942;28;20915;-63
2021/09/24 03:58:51;;;;;;;11.00;7.40;;;12.60;99.90;;;;;;5096865;28;20200;-63
2021/09/24 04:01:17;;;;;;;11.43;7.97;;;12.60;99.90;;;;;;5090958;28;20233;-63
2021/09/24 04:03:43;;;;;;;11.07;8.73;;;12.60;99.90;;;;;;5068879;28;20588;-64
2021/09/24 04:06:10;;;;;;;12.23;8.57;;;12.50;99.90;;;;;;5085692;28;20576;-64
2021/09/24 04:08:36;;;;;;;10.25;7.00;;;12.50;99.90;;;;;;5085682;28;20568;-64
2021/09/24 04:11:02;;;;;;;9.55;7.85;;;12.50;99.90;;;;;;5087112;28;20182;-64
2021/09/24 04:13:28;;;;;;;9.60;7.55;;;12.50;99.90;;;;;;5067237;28;20677;-64
2021/09/24 04:15:54;;;;;;;10.57;7.80;;;12.50;99.90;;;;;;5085648;28;20200;-65
2021/09/24 04:18:19;;;;;;;11.60;8.10;;;12.50;99.90;;;;;;5086800;28;20673;-65
2021/09/24 04:20:47;;;;;;;12.40;8.40;;;12.50;99.90;;;;;;5084871;28;20176;-63
2021/09/24 04:23:13;;;;;;;12.32;8.13;;;12.50;99.90;;;;;;5085783;28;20204;-64
2021/09/24 04:25:39;;;;;;;10.82;8.05;;;12.50;99.90;;;;;;5086955;28;20189;-65
2021/09/24 04:28:04;;;;;;;10.60;8.23;;;12.40;99.90;;;;;;5087299;28;20684;-64
2021/09/24 04:30:30;;;;;;;12.43;8.17;;;12.40;99.90;;;;;;5086623;28;20201;-64
2021/09/24 04:32:55;;;;;;;11.53;7.20;;;12.40;99.90;;;;;;5068025;28;20271;-63
2021/09/24 04:35:24;;;;;;;13.67;8.07;;;12.30;99.90;;;;;;5096885;28;20208;-64
2021/09/24 04:37:49;;;;;;;14.05;9.15;;;12.20;99.90;;;;;;5090506;28;20189;-63
2021/09/24 04:40:15;;;;;;;11.83;7.93;;;12.20;99.90;;;;;;5088634;28;20257;-64
2021/09/24 04:42:41;;;;;;;12.53;9.03;;;12.10;99.90;;;;;;5097547;28;20223;-64
2021/09/24 04:45:07;;;;;;;10.83;8.37;;;12.00;99.90;;;;;;5091997;28;20205;-64
2021/09/24 04:47:32;;;;;;;14.00;9.23;;;11.90;99.90;;;;;;5093148;28;20290;-64
2021/09/24 04:49:58;;;;;;;10.80;8.67;;;11.90;99.90;;;;;;5088948;28;20439;-64
2021/09/24 04:52:23;;;;;;;11.27;8.50;;;11.80;99.90;;;;;;5086873;28;20699;-65
2021/09/24 04:54:49;;;;;;;12.37;7.80;;;11.80;99.90;;;;;;5077602;28;20251;-63
2021/09/24 04:57:15;;;;;;;14.70;9.20;;;11.80;99.90;;;;;;5069961;28;20180;-63
2021/09/24 04:59:40;;;;;;;11.23;8.88;;;11.80;99.90;;;;;;5095236;28;20577;-64
2021/09/24 05:02:06;;;;;;;14.00;8.97;;;11.80;99.90;;;;;;5069025;28;20219;-64
2021/09/24 05:04:32;;;;;;;14.40;8.40;;;11.80;99.90;;;;;;5099111;28;20211;-64
2021/09/24 05:06:57;;;;;;;11.73;8.27;;;11.80;99.90;;;;;;5108537;28;20180;-64
2021/09/24 05:09:23;;;;;;;11.77;7.90;;;11.90;99.90;;;;;;5098459;28;20201;-64
2021/09/24 05:11:49;;;;;;;12.60;8.60;;;11.90;99.90;;;;;;5095178;28;20673;-64
2021/09/24 05:14:14;;;;;;;10.67;8.10;;;12.00;99.90;;;;;;5099942;28;20590;-64
2021/09/24 05:16:40;;;;;;;11.07;7.80;;;12.00;99.90;;;;;;5086369;28;20307;-64
2021/09/24 05:19:05;;;;;;;13.07;8.00;;;12.00;99.90;;;;;;5098079;28;20207;-64
2021/09/24 05:21:31;;;;;;;13.40;9.30;;;12.00;99.90;;;;;;5079900;28;20188;-64
2021/09/24 05:23:57;;;;;;;13.43;8.47;;;12.00;99.90;;;;;;5095918;28;20616;-64
2021/09/24 05:26:23;;;;;;;12.57;7.67;;;12.00;99.90;;;;;;5093704;28;20272;-64
2021/09/24 05:28:48;;;;;;;11.47;8.40;;;12.00;99.90;;;;;;5103144;28;20212;-65
2021/09/24 05:31:14;;;;;;;10.83;8.00;;;12.00;99.90;;;;;;5091778;28;20180;-64
2021/09/24 05:33:39;;;;;;;12.47;7.90;;;12.10;99.90;;;;;;5079400;28;20418;-64
2021/09/24 05:36:05;;;;;;;11.03;8.30;;;12.00;99.90;;;;;;5091495;28;20334;-64
2021/09/24 05:38:31;;;;;;;12.67;8.23;;;12.00;99.90;;;;;;5095397;28;20706;-65
2021/09/24 05:40:57;;;;;;;10.90;8.30;;;12.10;99.90;;;;;;5076941;28;20184;-64
2021/09/24 05:43:22;;;;;;;11.57;8.60;;;12.10;99.90;;;;;;5086804;28;20207;-64
2021/09/24 05:45:48;;;;;;;11.13;8.10;;;12.10;99.90;;;;;;5079618;28;20721;-65
2021/09/24 05:48:13;;;;;;;13.40;9.67;;;12.10;99.90;;;;;;5099992;28;20207;-64
2021/09/24 05:50:39;;;;;;;10.20;7.73;;;12.10;99.90;;;;;;5099565;28;20262;-65
2021/09/24 05:53:05;;;;;;;14.20;8.13;;;12.10;99.90;;;;;;5097373;28;20198;-64
2021/09/24 05:55:30;;;;;;;11.50;7.63;;;12.20;99.90;;;;;;5088068;28;20202;-65
2021/09/24 05:57:56;;;;;;;10.70;7.90;;;12.20;99.90;;;;;;5081152;28;20275;-64
2021/09/24 06:00:22;;;;;;;11.67;8.07;;;12.30;99.90;;;;;;5107972;28;20200;-64
2021/09/24 06:02:49;;;;;;;13.57;9.05;;;12.30;99.90;;;;;;5094190;28;20219;-65
2021/09/24 06:05:15;;;;;;;10.25;7.60;;;12.30;99.90;;;;;;5086983;28;20207;-65
2021/09/24 06:07:44;;;;;;;11.48;7.75;;;12.40;99.90;;;;;;5095359;28;20192;-65
2021/09/24 06:10:10;;;;;;;9.88;7.32;;;12.40;99.90;;;;;;5105723;28;20210;-64
2021/09/24 06:12:36;;;;;;;9.63;7.50;;;12.50;99.90;;;;;;5096839;28;20173;-64
2021/09/24 06:15:02;;;;;;;10.32;7.30;;;12.60;99.90;;;;;;5092963;28;20246;-65
2021/09/24 06:17:29;;;;;;;8.27;6.75;;;12.70;99.90;;;;;;5095789;28;20224;-65
2021/09/24 06:19:55;;;;;;;12.38;8.38;;;12.70;99.90;;;;;;5107486;28;20224;-64
2021/09/24 06:22:21;;;;;;;12.13;7.88;;;12.80;99.90;;;;;;5099344;28;20265;-65
2021/09/24 06:24:46;;;;;;;12.17;9.17;;;12.90;99.90;;;;;;5107110;28;20604;-63
2021/09/24 06:27:16;;;;;;;12.10;7.70;;;13.00;99.90;;;;;;5078033;28;20176;-63
2021/09/24 06:29:47;;;;;;;9.50;7.27;;;13.10;99.90;;;;;;5094566;28;20224;-63
2021/09/24 06:32:14;;;;;;;12.60;7.47;;;13.20;99.90;;;;;;5085625;28;20778;-63
2021/09/24 06:34:42;;;;;;;9.88;7.15;;;13.30;99.90;;;;;;5103582;28;20208;-63
2021/09/24 06:37:08;;;;;;;11.63;6.97;;;13.40;99.90;;;;;;5080529;28;20227;-63
2021/09/24 06:39:34;;;;;;;14.03;5.97;;;13.40;99.90;;;;;;5084430;28;20436;-63
2021/09/24 06:42:00;;;;;;;9.10;6.67;;;13.50;99.90;;;;;;5084516;28;20200;-63
2021/09/24 06:44:26;;;;;;;8.17;6.17;;;13.60;99.90;;;;;;5102264;28;20589;-63
2021/09/24 06:46:51;;;;;;;7.23;6.10;;;13.70;99.90;;;;;;5085011;28;20408;-63
2021/09/24 06:49:20;;;;;;;8.07;5.90;;;13.80;99.90;;;;;;5069027;28;20573;-63
2021/09/24 06:51:46;;;;;;;9.23;5.93;;;13.90;99.90;;;;;;5077102;28;20275;-63
2021/09/24 06:54:12;;;;;;;9.90;6.10;;;14.10;99.90;;;;;;5085866;28;20887;-63
2021/09/24 06:56:37;;;;;;;10.60;6.23;;;14.20;99.90;;;;;;5091247;28;20769;-63
2021/09/24 06:59:03;;;;;;;8.03;5.67;;;14.30;99.90;;;;;;5088663;28;20204;-63
2021/09/24 07:01:30;;;;;;;6.80;5.53;;;14.40;99.90;;;;;;5083042;28;20637;-63
2021/09/24 07:03:55;;;;;;;8.73;6.27;;;14.60;99.90;;;;;;5094397;28;20536;-63
2021/09/24 07:06:21;;;;;;;9.13;6.10;;;14.70;99.90;;;;;;5103562;28;20512;-64
2021/09/24 07:08:47;;;;;;;7.57;5.77;;;14.80;99.90;;;;;;5099885;28;20215;-63
2021/09/24 07:11:12;;;;;;;8.83;5.70;;;14.90;99.90;;;;;;5075871;28;20172;-63
2021/09/24 07:13:38;;;;;;;6.73;5.40;;;15.10;99.90;;;;;;5097268;28;20298;-63
2021/09/24 07:16:05;;;;;;;7.67;6.77;;;15.30;99.90;;;;;;5093536;28;20716;-64
2021/09/24 07:18:31;;;;;;;8.30;6.20;;;15.40;99.90;;;;;;5093165;28;20564;-63
2021/09/24 07:20:57;;;;;;;6.33;5.03;;;15.60;99.90;;;;;;5096911;28;20784;-63
2021/09/24 07:23:23;;;;;;;10.87;5.93;;;15.70;99.90;;;;;;5093784;28;20443;-63
2021/09/24 07:25:50;;;;;;;5.53;4.97;;;15.90;99.90;;;;;;5078437;28;20212;-64
2021/09/24 07:28:16;;;;;;;7.37;5.10;;;16.00;99.90;;;;;;5087048;28;20437;-63
2021/09/24 07:30:41;;;;;;;7.73;5.37;;;16.20;99.90;;;;;;5088191;28;20435;-63
2021/09/24 07:33:07;;;;;;;6.27;4.90;;;16.40;99.90;;;;;;5079506;28;20781;-63
2021/09/24 07:35:33;;;;;;;7.87;5.73;;;16.50;99.90;;;;;;5087888;28;20249;-64
2021/09/24 07:37:59;;;;;;;5.93;5.30;;;16.70;99.90;;;;;;5082879;28;20185;-63
2021/09/24 07:40:27;;;;;;;7.27;5.10;;;16.90;99.90;;;;;;5100416;28;20466;-64
2021/09/24 07:42:53;;;;;;;6.03;5.13;;;17.00;99.90;;;;;;5080971;28;20747;-64
2021/09/24 07:45:19;;;;;;;5.63;5.03;;;17.10;99.90;;;;;;5094815;28;20456;-64
2021/09/24 07:47:45;;;;;;;7.10;5.20;;;17.20;99.90;;;;;;5078340;28;20212;-64
2021/09/24 07:50:11;;;;;;;6.33;5.20;;;17.30;99.90;;;;;;5094936;28;20472;-64
2021/09/24 07:52:37;;;;;;;5.60;5.10;;;17.40;99.90;;;;;;5101736;28;20672;-64
2021/09/24 07:55:03;;;;;;;7.00;5.40;;;17.50;99.90;;;;;;5096290;28;20480;-65
2021/09/24 07:57:29;;;;;;;6.10;5.03;;;17.60;99.90;;;;;;5099272;28;20491;-64
2021/09/24 07:59:55;;;;;;;6.27;5.23;;;17.80;99.90;;;;;;5088507;28;20455;-65
2021/09/24 08:02:21;;;;;;;5.27;4.77;;;17.90;99.90;;;;;;5071758;28;20208;-67
2021/09/24 08:04:47;;;;;;;7.17;4.93;;;18.10;99.90;;;;;;5078863;28;20957;-63
2021/09/24 08:07:13;;;;;;;7.87;4.80;;;18.30;99.90;;;;;;5080309;28;20436;-63
2021/09/24 08:09:39;;;;;;;6.00;4.60;;;18.60;99.90;;;;;;5091736;28;20308;-64
2021/09/24 08:12:05;;;;;;;6.70;5.00;;;18.90;99.90;;;;;;5088387;28;20540;-64
2021/09/24 08:14:31;;;;;;;7.60;4.50;;;19.30;99.90;;;;;;5096439;28;20253;-64
2021/09/24 08:16:57;;;;;;;9.13;4.80;;;19.70;99.90;;;;;;5073144;28;20473;-64
2021/09/24 08:19:23;;;;;;;10.30;5.03;;;20.30;99.90;;;;;;5098215;28;21104;-65
2021/09/24 08:21:49;;;;;;;7.87;4.63;;;20.80;99.90;;;;;;5100289;28;20265;-63
2021/09/24 08:24:14;;;;;;;5.03;3.70;;;21.30;99.90;;;;;;5094788;28;20536;-64
2021/09/24 08:26:40;;;;;;;6.70;4.87;;;21.90;99.90;;;;;;5094706;28;20276;-64
2021/09/24 08:29:06;;;;;;;5.60;4.80;;;22.60;99.90;;;;;;5098924;28;20761;-64
2021/09/24 08:31:33;;;;;;;4.57;4.00;;;23.20;99.90;;;;;;5091814;28;20226;-65
2021/09/24 08:33:58;;;;;;;5.20;4.20;;;23.70;99.90;;;;;;5087920;28;20761;-64
2021/09/24 08:36:25;;;;;;;3.67;3.30;;;24.20;99.90;;;;;;5093067;28;20558;-64
2021/09/24 08:38:52;;;;;;;4.73;3.90;;;24.50;99.90;;;;;;5097065;28;20459;-64
2021/09/24 08:41:19;;;;;;;4.13;3.33;;;24.80;99.90;;;;;;5074152;28;21307;-64
2021/09/24 08:43:48;;;;;;;3.90;3.50;;;24.90;99.90;;;;;;5093973;28;20488;-64
2021/09/24 08:46:18;;;;;;;4.83;3.60;;;24.90;99.90;;;;;;5090058;28;20432;-64
2021/09/24 08:48:48;;;;;;;5.20;4.00;;;24.80;99.90;;;;;;5094553;28;20433;-64
2021/09/24 08:51:15;;;;;;;4.40;4.00;;;24.60;99.90;;;;;;5084734;28;21043;-65
2021/09/24 08:53:41;;;;;;;4.33;3.13;;;24.40;99.90;;;;;;5095582;28;20773;-64
2021/09/24 08:56:10;;;;;;;4.30;3.50;;;24.10;99.90;;;;;;5072324;28;20440;-64
2021/09/24 08:58:36;;;;;;;4.23;3.27;;;23.80;99.90;;;;;;5091534;28;20446;-64
2021/09/24 09:01:02;;;;;;;6.47;3.67;;;23.70;99.90;;;;;;5087192;28;20437;-64
2021/09/24 09:03:45;;;;;;;3.23;2.93;;;23.50;99.90;;;;;;5093320;28;20458;-64
2021/09/24 09:06:14;;;;;;;8.90;5.40;;;23.30;99.90;;;;;;5086179;28;20797;-65
2021/09/24 09:08:41;;;;;;;3.83;3.23;;;23.10;99.90;;;;;;5093436;28;20990;-64
2021/09/24 09:11:13;;;;;;;3.93;3.20;;;22.90;99.90;;;;;;5092455;28;20869;-64
2021/09/24 09:13:44;;;;;;;5.57;4.27;;;22.80;99.90;;;;;;5091797;28;20465;-64
2021/09/24 09:16:17;;;;;;;5.67;3.93;;;22.60;99.90;;;;;;5091625;28;20468;-65
2021/09/24 09:18:48;;;;;;;5.00;3.87;;;22.40;99.90;;;;;;5089015;28;20501;-64
2021/09/24 09:21:16;;;;;;;4.30;3.83;;;22.30;99.90;;;;;;5074163;28;20516;-64
2021/09/24 09:23:48;;;;;;;4.03;3.40;;;22.10;99.90;;;;;;5066649;28;20501;-64
2021/09/24 09:26:15;;;;;;;4.40;4.00;;;22.10;99.90;;;;;;5084963;28;20470;-64
2021/09/24 09:28:54;;;;;;;4.90;4.40;;;22.00;99.90;;;;;;5067842;28;20842;-64
2021/09/24 09:31:20;;;;;;;3.93;3.60;;;22.00;99.90;;;;;;5086205;28;20464;-64
2021/09/24 09:33:46;;;;;;;4.13;3.73;;;22.00;99.90;;;;;;5068145;28;20782;-64
2021/09/24 09:36:20;;;;;;;4.83;3.70;;;21.90;99.90;;;;;;5080810;28;20929;-64
2021/09/24 09:38:45;;;;;;;4.20;3.80;;;21.90;99.90;;;;;;5090559;28;20525;-64
2021/09/24 09:41:13;;;;;;;5.10;3.50;;;21.80;99.90;;;;;;5090453;28;20441;-63
2021/09/24 09:43:46;;;;;;;3.80;3.40;;;21.80;99.90;;;;;;5090497;28;20224;-63
2021/09/24 09:46:17;;;;;;;4.30;3.90;;;21.80;99.90;;;;;;5089532;28;20512;-63
2021/09/24 09:48:58;;;;;;;4.00;3.27;;;21.80;99.90;;;;;;5085996;28;20520;-63
2021/09/24 09:51:24;;;;;;;4.00;3.60;;;21.80;99.90;;;;;;5091507;28;20406;-64
2021/09/24 09:53:49;;;;;;;7.13;4.03;;;21.80;99.90;;;;;;5093914;28;20950;-63
2021/09/24 09:56:18;;;;;;;4.07;3.03;;;21.90;99.90;;;;;;5089657;28;20589;-63
2021/09/24 09:58:44;;;;;;;5.07;3.77;;;21.90;99.90;;;;;;5091243;28;20462;-63
2021/09/24 10:01:14;;;;;;;3.80;3.30;;;22.00;99.90;;;;;;5085996;28;20686;-64
2021/09/24 10:03:51;;;;;;;5.97;3.83;;;22.00;99.90;;;;;;5087854;28;20984;-64
2021/09/24 10:06:26;;;;;;;4.20;3.03;;;22.10;99.90;;;;;;5080732;28;20534;-63
2021/09/24 10:09:00;;;;;;;3.23;2.93;;;22.20;99.90;;;;;;5101989;28;20446;-64
2021/09/24 10:11:37;;;;;;;3.43;3.13;;;22.20;99.90;;;;;;5095575;28;20407;-63
2021/09/24 10:14:11;;;;;;;5.00;3.10;;;22.20;99.90;;;;;;5068956;28;20446;-63
2021/09/24 10:16:43;;;;;;;6.27;4.13;;;22.30;99.90;;;;;;5090496;28;20471;-65
2021/09/24 10:19:09;;;;;;;3.30;3.00;;;22.20;99.90;;;;;;5088529;28;21060;-63
2021/09/24 10:21:35;;;;;;;5.33;3.30;;;22.20;99.90;;;;;;5076263;28;20429;-63
2021/09/24 10:24:01;;;;;;;4.10;3.80;;;22.20;99.90;;;;;;5075586;28;20487;-63
2021/09/24 10:26:38;;;;;;;3.70;3.17;;;22.30;99.90;;;;;;5099896;28;20430;-64
2021/09/24 10:29:08;;;;;;;3.07;2.70;;;22.30;99.90;;;;;;5087306;28;20451;-63
2021/09/24 10:31:40;;;;;;;3.23;2.93;;;22.30;99.90;;;;;;5101390;28;20485;-63
2021/09/24 10:34:06;;;;;;;3.00;2.80;;;22.30;99.90;;;;;;5096020;28;20534;-63
2021/09/24 10:36:37;;;;;;;3.20;2.90;;;22.30;99.90;;;;;;5069788;28;20523;-63
2021/09/24 10:39:24;;;;;;;3.97;2.67;;;22.30;99.90;;;;;;5089804;28;21611;-63
2021/09/24 10:42:18;;;;;;;3.17;2.87;;;22.20;99.90;;;;;;5086470;28;20512;-63
2021/09/24 10:45:00;;;;;;;3.27;2.43;;;22.20;99.90;;;;;;5096739;28;20513;-63
2021/09/24 10:48:03;;;;;;;2.70;2.50;;;22.30;99.90;;;;;;5064178;28;20445;-64
2021/09/24 10:50:28;;;;;;;4.80;3.20;;;22.50;99.90;;;;;;5090720;28;20430;-64
2021/09/24 10:53:09;;;;;;;3.50;2.50;;;22.60;99.90;;;;;;5069348;28;20605;-63
2021/09/24 10:55:45;;;;;;;2.30;1.97;;;22.70;99.90;;;;;;5094640;28;20641;-63
2021/09/24 10:58:26;;;;;;;3.13;2.40;;;22.80;99.90;;;;;;5069372;28;20900;-63
2021/09/24 11:00:55;;;;;;;4.20;2.90;;;22.90;99.90;;;;;;5071960;28;20440;-63
2021/09/24 11:03:24;;;;;;;2.47;1.90;;;23.00;99.90;;;;;;5088818;28;20497;-63
2021/09/24 11:05:58;;;;;;;2.03;1.80;;;23.00;99.90;;;;;;5082701;28;20441;-64
2021/09/24 11:08:33;;;;;;;3.33;2.87;;;23.10;99.90;;;;;;5068029;28;20431;-63
2021/09/24 11:11:11;;;;;;;3.47;2.50;;;23.20;99.90;;;;;;5086441;28;20444;-63
2021/09/24 11:13:43;;;;;;;3.23;2.40;;;23.20;99.90;;;;;;5093571;28;20452;-63
2021/09/24 11:16:22;;;;;;;3.27;2.97;;;23.30;99.90;;;;;;5093414;28;20535;-63
2021/09/24 11:18:51;;;;;;;6.20;2.60;;;23.30;99.90;;;;;;5096865;28;20454;-63
2021/09/24 11:21:31;;;;;;;2.60;2.40;;;23.30;99.90;;;;;;5067976;28;20540;-63
2021/09/24 11:24:01;;;;;;;3.40;2.43;;;23.40;99.90;;;;;;5065789;28;21005;-64
2021/09/24 11:26:31;;;;;;;2.67;2.47;;;23.40;99.90;;;;;;5083470;28;20994;-64
2021/09/24 11:29:08;;;;;;;4.03;2.80;;;23.50;99.90;;;;;;5086781;28;20783;-63
2021/09/24 11:31:52;;;;;;;3.40;2.57;;;23.50;99.90;;;;;;5064459;28;20477;-64
2021/09/24 11:34:33;;;;;;;4.03;3.03;;;23.60;99.90;;;;;;5080869;28;20454;-64
2021/09/24 11:37:09;;;;;;;5.03;2.30;;;23.60;99.90;;;;;;5082111;28;20437;-63
2021/09/24 11:39:37;;;;;;;4.40;2.97;;;23.60;99.90;;;;;;5088042;28;20456;-64
2021/09/24 11:42:20;;;;;;;2.90;2.40;;;23.70;99.90;;;;;;5084504;28;20429;-64
2021/09/24 11:44:49;;;;;;;3.67;2.37;;;23.70;99.90;;;;;;5080914;28;20542;-64
2021/09/24 11:47:24;;;;;;;2.70;2.50;;;23.70;99.90;;;;;;5088093;28;20801;-64
2021/09/24 11:49:58;;;;;;;2.30;2.10;;;23.80;99.90;;;;;;5089377;28;20460;-64
2021/09/24 11:52:41;;;;;;;2.70;1.90;;;23.80;99.90;;;;;;5089654;28;20488;-63
2021/09/24 11:55:34;;;;;;;4.60;2.53;;;23.80;99.90;;;;;;5079849;28;20499;-63
2021/09/24 11:57:59;;;;;;;2.17;1.80;;;23.80;99.90;;;;;;5079730;28;20435;-64
2021/09/24 12:00:29;;;;;;;3.63;1.90;;;23.80;99.90;;;;;;5081017;28;20895;-63
2021/09/24 12:03:28;;;;;;;2.40;2.20;;;23.80;99.90;;;;;;5084360;28;20262;-63
2021/09/24 12:06:05;;;;;;;3.00;2.27;;;23.70;99.70;;;;;;5082984;28;20468;-64
2021/09/24 12:08:33;;;;;;;3.50;2.30;;;23.70;99.50;;;;;;5083959;28;20452;-63
2021/09/24 12:11:08;;;;;;;2.50;2.30;;;23.70;99.20;;;;;;5081713;28;20528;-63
2021/09/24 12:13:46;;;;;;;2.50;2.00;;;23.70;99.50;;;;;;5085329;28;20460;-63
2021/09/24 12:16:14;;;;;;;2.77;2.20;;;23.70;99.50;;;;;;5084623;28;20468;-63
2021/09/24 12:19:03;;;;;;;3.90;2.70;;;23.70;99.60;;;;;;5074370;28;20568;-63
2021/09/24 12:21:37;;;;;;;2.37;2.00;;;23.70;99.90;;;;;;5096136;28;20440;-63
2021/09/24 12:24:09;;;;;;;2.00;1.50;;;23.70;99.90;;;;;;5088067;28;20471;-63
2021/09/24 12:26:41;;;;;;;3.13;2.33;;;23.80;99.90;;;;;;5101466;28;20806;-63
2021/09/24 12:29:13;;;;;;;2.43;2.00;;;23.80;99.70;;;;;;5106497;28;20433;-63
2021/09/24 12:31:46;;;;;;;2.67;2.20;;;23.80;99.20;;;;;;5082104;28;20440;-63
2021/09/24 12:34:16;;;;;;;3.93;2.30;;;23.80;99.40;;;;;;5088346;28;20467;-63
2021/09/24 12:37:01;;;;;;;6.23;2.60;;;23.90;99.20;;;;;;5091125;28;20428;-63
2021/09/24 12:39:29;;;;;;;2.50;2.13;;;23.80;98.80;;;;;;5066589;28;20840;-63
2021/09/24 12:41:58;;;;;;;2.50;2.20;;;23.90;98.70;;;;;;5087336;28;20429;-63
2021/09/24 12:44:25;;;;;;;3.40;2.43;;;23.90;99.00;;;;;;5067989;28;20973;-63
2021/09/24 12:46:53;;;;;;;3.10;2.40;;;23.90;98.80;;;;;;5074506;28;20773;-63